LPMA Airport Information

Runway Information
Runway 05 Length 9110 ft width 148 ft
Elevation 147 ft Threshold 480 ft Heading 45
Runway 23 Length 9110 ft Width 148 ft
Elevation 192 ft Threshold 490 ft Heading 225
Airport Frequencies
Type APP Name APP Frequency 119.2 MHZ
Type TWR Name TWR Frequency 118.35 MHZ
Airport Navaids
Type VOR-DME Name Madeira Frequency 112200 KHZ
Type NDB Name Madeira Frequency 318 KHZ
Airport Weather Information & NOTAM
ADDS - METARS form results

(2004 UTC 22 July 2018)
 
METAR text: LPMA 221930Z 02006KT 320V110 9999 SCT016 22/16 Q1019
Conditions at: LPMA (FUNCHAL/MADEIRA , PT) observed 1930 UTC 22 July 2018
Temperature: 22.0°C (72°F)
Dewpoint: 16.0°C (61°F) [RH = 69%]
Pressure (altimeter): 30.09 inches Hg (1019.0 mb)
Winds: from the NNE (20 degrees) at 7 MPH (6 knots; 3.1 m/s)
Visibility: 6 or more miles (10+ km)
Ceiling: at least 12,000 feet AGL
Clouds: scattered clouds at 1600 feet AGL
Weather: no significant weather observed at this time